sensor_id;sensor_type;location;lat;lon;timestamp;P1;durP1;ratioP1;P2;durP2;ratioP2
1180;SDS011;579;52.046;8.532;2023-04-24T00:06:26;0.10;;;0.10;;
1180;SDS011;579;52.046;8.532;2023-04-24T00:08:57;0.00;;;0.00;;
1180;SDS011;579;52.046;8.532;2023-04-24T00:11:24;0.10;;;0.10;;
1180;SDS011;579;52.046;8.532;2023-04-24T00:13:50;0.00;;;0.00;;
1180;SDS011;579;52.046;8.532;2023-04-24T00:16:17;0.10;;;0.10;;
1180;SDS011;579;52.046;8.532;2023-04-24T00:18:43;0.10;;;0.10;;
1180;SDS011;579;52.046;8.532;2023-04-24T00:21:10;0.10;;;0.10;;
1180;SDS011;579;52.046;8.532;2023-04-24T00:28:23;0.10;;;0.10;;
1180;SDS011;579;52.046;8.532;2023-04-24T00:30:50;0.10;;;0.10;;
1180;SDS011;579;52.046;8.532;2023-04-24T00:33:16;0.10;;;0.10;;
1180;SDS011;579;52.046;8.532;2023-04-24T00:35:42;0.10;;;0.10;;
1180;SDS011;579;52.046;8.532;2023-04-24T00:38:08;0.10;;;0.10;;
1180;SDS011;579;52.046;8.532;2023-04-24T00:40:35;0.10;;;0.10;;
1180;SDS011;579;52.046;8.532;2023-04-24T00:43:01;0.10;;;0.10;;
1180;SDS011;579;52.046;8.532;2023-04-24T00:50:41;0.10;;;0.10;;
1180;SDS011;579;52.046;8.532;2023-04-24T00:53:07;0.10;;;0.10;;
1180;SDS011;579;52.046;8.532;2023-04-24T00:55:34;0.10;;;0.10;;
1180;SDS011;579;52.046;8.532;2023-04-24T00:58:02;0.20;;;0.20;;
1180;SDS011;579;52.046;8.532;2023-04-24T01:00:28;0.13;;;0.13;;
1180;SDS011;579;52.046;8.532;2023-04-24T01:02:55;0.10;;;0.10;;
1180;SDS011;579;52.046;8.532;2023-04-24T01:05:24;0.10;;;0.10;;
1180;SDS011;579;52.046;8.532;2023-04-24T01:10:25;0.10;;;0.10;;
1180;SDS011;579;52.046;8.532;2023-04-24T01:12:52;0.00;;;0.00;;
1180;SDS011;579;52.046;8.532;2023-04-24T01:15:19;0.10;;;0.10;;
1180;SDS011;579;52.046;8.532;2023-04-24T01:17:45;0.00;;;0.00;;
1180;SDS011;579;52.046;8.532;2023-04-24T01:20:12;0.10;;;0.10;;
1180;SDS011;579;52.046;8.532;2023-04-24T01:22:39;0.10;;;0.10;;
1180;SDS011;579;52.046;8.532;2023-04-24T01:25:06;0.00;;;0.00;;
1180;SDS011;579;52.046;8.532;2023-04-24T01:32:37;0.00;;;0.00;;
1180;SDS011;579;52.046;8.532;2023-04-24T01:35:05;0.00;;;0.00;;
1180;SDS011;579;52.046;8.532;2023-04-24T01:37:33;0.00;;;0.00;;
1180;SDS011;579;52.046;8.532;2023-04-24T01:39:59;0.00;;;0.00;;
1180;SDS011;579;52.046;8.532;2023-04-24T01:42:25;0.00;;;0.00;;
1180;SDS011;579;52.046;8.532;2023-04-24T01:44:52;0.00;;;0.00;;
1180;SDS011;579;52.046;8.532;2023-04-24T01:47:19;0.00;;;0.00;;
1180;SDS011;579;52.046;8.532;2023-04-24T01:54:50;0.10;;;0.10;;
1180;SDS011;579;52.046;8.532;2023-04-24T01:57:18;0.10;;;0.10;;
1180;SDS011;579;52.046;8.532;2023-04-24T01:59:44;0.10;;;0.10;;
1180;SDS011;579;52.046;8.532;2023-04-24T02:02:10;0.00;;;0.00;;
1180;SDS011;579;52.046;8.532;2023-04-24T02:04:37;0.10;;;0.10;;
1180;SDS011;579;52.046;8.532;2023-04-24T02:07:03;0.10;;;0.10;;
1180;SDS011;579;52.046;8.532;2023-04-24T02:09:30;0.10;;;0.10;;
1180;SDS011;579;52.046;8.532;2023-04-24T02:17:01;0.10;;;0.10;;
1180;SDS011;579;52.046;8.532;2023-04-24T02:19:27;0.10;;;0.10;;
1180;SDS011;579;52.046;8.532;2023-04-24T02:21:53;0.10;;;0.10;;
1180;SDS011;579;52.046;8.532;2023-04-24T02:24:19;0.10;;;0.10;;
1180;SDS011;579;52.046;8.532;2023-04-24T02:26:46;0.00;;;0.00;;
1180;SDS011;579;52.046;8.532;2023-04-24T02:29:12;0.10;;;0.10;;
1180;SDS011;579;52.046;8.532;2023-04-24T02:31:38;0.00;;;0.00;;
1180;SDS011;579;52.046;8.532;2023-04-24T02:40:17;0.00;;;0.00;;
1180;SDS011;579;52.046;8.532;2023-04-24T02:42:43;0.00;;;0.00;;
1180;SDS011;579;52.046;8.532;2023-04-24T02:45:10;0.00;;;0.00;;
1180;SDS011;579;52.046;8.532;2023-04-24T02:47:36;0.00;;;0.00;;
1180;SDS011;579;52.046;8.532;2023-04-24T02:50:03;0.00;;;0.00;;
1180;SDS011;579;52.046;8.532;2023-04-24T02:52:30;0.10;;;0.10;;
1180;SDS011;579;52.046;8.532;2023-04-24T02:54:56;0.10;;;0.10;;
1180;SDS011;579;52.046;8.532;2023-04-24T03:02:17;0.00;;;0.00;;
1180;SDS011;579;52.046;8.532;2023-04-24T03:04:43;0.10;;;0.10;;
1180;SDS011;579;52.046;8.532;2023-04-24T03:07:10;0.00;;;0.00;;
1180;SDS011;579;52.046;8.532;2023-04-24T03:09:37;0.10;;;0.10;;
1180;SDS011;579;52.046;8.532;2023-04-24T03:12:03;0.05;;;0.05;;
1180;SDS011;579;52.046;8.532;2023-04-24T03:14:29;0.00;;;0.00;;
1180;SDS011;579;52.046;8.532;2023-04-24T03:16:56;0.05;;;0.05;;
1180;SDS011;579;52.046;8.532;2023-04-24T03:24:27;0.10;;;0.10;;
1180;SDS011;579;52.046;8.532;2023-04-24T03:26:54;0.10;;;0.10;;
1180;SDS011;579;52.046;8.532;2023-04-24T03:29:21;0.10;;;0.10;;
1180;SDS011;579;52.046;8.532;2023-04-24T03:31:48;0.10;;;0.10;;
1180;SDS011;579;52.046;8.532;2023-04-24T03:34:14;0.08;;;0.08;;
1180;SDS011;579;52.046;8.532;2023-04-24T03:36:41;0.10;;;0.10;;
1180;SDS011;579;52.046;8.532;2023-04-24T03:39:07;0.10;;;0.10;;
1180;SDS011;579;52.046;8.532;2023-04-24T03:46:34;0.10;;;0.10;;
1180;SDS011;579;52.046;8.532;2023-04-24T03:49:00;0.10;;;0.10;;
1180;SDS011;579;52.046;8.532;2023-04-24T03:51:26;0.20;;;0.20;;
1180;SDS011;579;52.046;8.532;2023-04-24T03:53:55;0.10;;;0.10;;
1180;SDS011;579;52.046;8.532;2023-04-24T03:56:21;0.10;;;0.10;;
1180;SDS011;579;52.046;8.532;2023-04-24T03:58:47;0.10;;;0.10;;
1180;SDS011;579;52.046;8.532;2023-04-24T04:01:14;0.10;;;0.10;;
1180;SDS011;579;52.046;8.532;2023-04-24T04:06:28;0.20;;;0.20;;
1180;SDS011;579;52.046;8.532;2023-04-24T04:08:55;0.10;;;0.10;;
1180;SDS011;579;52.046;8.532;2023-04-24T04:11:22;0.10;;;0.10;;
1180;SDS011;579;52.046;8.532;2023-04-24T04:13:48;0.10;;;0.10;;
1180;SDS011;579;52.046;8.532;2023-04-24T04:16:15;0.10;;;0.10;;
1180;SDS011;579;52.046;8.532;2023-04-24T04:18:42;0.10;;;0.10;;
1180;SDS011;579;52.046;8.532;2023-04-24T04:21:08;0.10;;;0.10;;
1180;SDS011;579;52.046;8.532;2023-04-24T04:28:21;0.20;;;0.20;;
1180;SDS011;579;52.046;8.532;2023-04-24T04:30:49;0.10;;;0.10;;
1180;SDS011;579;52.046;8.532;2023-04-24T04:33:18;0.10;;;0.10;;
1180;SDS011;579;52.046;8.532;2023-04-24T04:35:45;0.10;;;0.10;;
1180;SDS011;579;52.046;8.532;2023-04-24T04:38:13;0.30;;;0.30;;
1180;SDS011;579;52.046;8.532;2023-04-24T04:40:40;0.10;;;0.10;;
1180;SDS011;579;52.046;8.532;2023-04-24T04:43:06;0.10;;;0.10;;
1180;SDS011;579;52.046;8.532;2023-04-24T04:50:38;0.03;;;0.03;;
1180;SDS011;579;52.046;8.532;2023-04-24T04:53:04;0.10;;;0.10;;
1180;SDS011;579;52.046;8.532;2023-04-24T04:55:31;0.10;;;0.10;;
1180;SDS011;579;52.046;8.532;2023-04-24T04:57:57;0.20;;;0.20;;
1180;SDS011;579;52.046;8.532;2023-04-24T05:00:25;0.28;;;0.28;;
1180;SDS011;579;52.046;8.532;2023-04-24T05:02:53;0.20;;;0.20;;
1180;SDS011;579;52.046;8.532;2023-04-24T05:05:20;0.10;;;0.10;;
1180;SDS011;579;52.046;8.532;2023-04-24T05:12:18;0.10;;;0.10;;
1180;SDS011;579;52.046;8.532;2023-04-24T05:14:44;0.10;;;0.10;;
1180;SDS011;579;52.046;8.532;2023-04-24T05:17:11;0.10;;;0.10;;
1180;SDS011;579;52.046;8.532;2023-04-24T05:19:37;0.10;;;0.10;;
1180;SDS011;579;52.046;8.532;2023-04-24T05:22:03;0.20;;;0.20;;
1180;SDS011;579;52.046;8.532;2023-04-24T05:24:31;0.20;;;0.20;;
1180;SDS011;579;52.046;8.532;2023-04-24T05:26:58;0.20;;;0.20;;
1180;SDS011;579;52.046;8.532;2023-04-24T05:33:46;0.10;;;0.10;;
1180;SDS011;579;52.046;8.532;2023-04-24T05:36:13;0.10;;;0.10;;
1180;SDS011;579;52.046;8.532;2023-04-24T05:38:39;0.20;;;0.20;;
1180;SDS011;579;52.046;8.532;2023-04-24T05:41:05;0.20;;;0.20;;
1180;SDS011;579;52.046;8.532;2023-04-24T05:43:31;0.20;;;0.20;;
1180;SDS011;579;52.046;8.532;2023-04-24T05:45:58;0.10;;;0.10;;
1180;SDS011;579;52.046;8.532;2023-04-24T05:48:24;0.10;;;0.10;;
1180;SDS011;579;52.046;8.532;2023-04-24T05:55:26;0.10;;;0.10;;
1180;SDS011;579;52.046;8.532;2023-04-24T05:57:52;0.10;;;0.10;;
1180;SDS011;579;52.046;8.532;2023-04-24T06:00:19;0.10;;;0.10;;
1180;SDS011;579;52.046;8.532;2023-04-24T06:02:45;0.10;;;0.10;;
1180;SDS011;579;52.046;8.532;2023-04-24T06:05:12;0.03;;;0.03;;
1180;SDS011;579;52.046;8.532;2023-04-24T06:07:38;0.00;;;0.00;;
1180;SDS011;579;52.046;8.532;2023-04-24T06:10:05;0.10;;;0.10;;
1180;SDS011;579;52.046;8.532;2023-04-24T06:17:36;0.10;;;0.10;;
1180;SDS011;579;52.046;8.532;2023-04-24T06:20:03;0.10;;;0.10;;
1180;SDS011;579;52.046;8.532;2023-04-24T06:22:31;0.10;;;0.10;;
1180;SDS011;579;52.046;8.532;2023-04-24T06:24:57;0.10;;;0.10;;
1180;SDS011;579;52.046;8.532;2023-04-24T06:27:24;0.10;;;0.10;;
1180;SDS011;579;52.046;8.532;2023-04-24T06:29:50;0.08;;;0.08;;
1180;SDS011;579;52.046;8.532;2023-04-24T06:32:19;0.10;;;0.10;;
1180;SDS011;579;52.046;8.532;2023-04-24T06:39:51;0.00;;;0.00;;
1180;SDS011;579;52.046;8.532;2023-04-24T06:42:18;0.00;;;0.00;;
1180;SDS011;579;52.046;8.532;2023-04-24T06:44:45;0.00;;;0.00;;
1180;SDS011;579;52.046;8.532;2023-04-24T06:47:12;0.00;;;0.00;;
1180;SDS011;579;52.046;8.532;2023-04-24T06:49:38;0.10;;;0.10;;
1180;SDS011;579;52.046;8.532;2023-04-24T06:52:05;0.03;;;0.03;;
1180;SDS011;579;52.046;8.532;2023-04-24T06:54:31;0.00;;;0.00;;
1180;SDS011;579;52.046;8.532;2023-04-24T07:02:03;0.10;;;0.10;;
1180;SDS011;579;52.046;8.532;2023-04-24T07:04:31;0.10;;;0.10;;
1180;SDS011;579;52.046;8.532;2023-04-24T07:06:57;0.10;;;0.10;;
1180;SDS011;579;52.046;8.532;2023-04-24T07:09:25;0.10;;;0.10;;
1180;SDS011;579;52.046;8.532;2023-04-24T07:11:52;0.10;;;0.10;;
1180;SDS011;579;52.046;8.532;2023-04-24T07:14:19;0.10;;;0.10;;
1180;SDS011;579;52.046;8.532;2023-04-24T07:16:45;0.10;;;0.10;;
1180;SDS011;579;52.046;8.532;2023-04-24T07:21:57;0.10;;;0.10;;
1180;SDS011;579;52.046;8.532;2023-04-24T07:24:24;0.10;;;0.10;;
1180;SDS011;579;52.046;8.532;2023-04-24T07:26:51;0.10;;;0.10;;
1180;SDS011;579;52.046;8.532;2023-04-24T07:29:19;0.10;;;0.10;;
1180;SDS011;579;52.046;8.532;2023-04-24T07:31:46;0.10;;;0.10;;
1180;SDS011;579;52.046;8.532;2023-04-24T07:34:12;0.10;;;0.10;;
1180;SDS011;579;52.046;8.532;2023-04-24T07:36:38;0.10;;;0.10;;
1180;SDS011;579;52.046;8.532;2023-04-24T07:44:11;0.10;;;0.10;;
1180;SDS011;579;52.046;8.532;2023-04-24T07:46:37;0.10;;;0.10;;
1180;SDS011;579;52.046;8.532;2023-04-24T07:49:03;0.10;;;0.10;;
1180;SDS011;579;52.046;8.532;2023-04-24T07:51:30;0.00;;;0.00;;
1180;SDS011;579;52.046;8.532;2023-04-24T07:53:58;0.10;;;0.10;;
1180;SDS011;579;52.046;8.532;2023-04-24T07:56:24;0.10;;;0.10;;
1180;SDS011;579;52.046;8.532;2023-04-24T07:58:51;0.10;;;0.10;;
1180;SDS011;579;52.046;8.532;2023-04-24T08:06:23;0.10;;;0.10;;
1180;SDS011;579;52.046;8.532;2023-04-24T08:08:50;0.10;;;0.10;;
1180;SDS011;579;52.046;8.532;2023-04-24T08:11:17;0.10;;;0.10;;
1180;SDS011;579;52.046;8.532;2023-04-24T08:13:43;0.10;;;0.10;;
1180;SDS011;579;52.046;8.532;2023-04-24T08:16:09;0.10;;;0.10;;
1180;SDS011;579;52.046;8.532;2023-04-24T08:18:35;0.10;;;0.10;;
1180;SDS011;579;52.046;8.532;2023-04-24T08:21:02;0.10;;;0.10;;
1180;SDS011;579;52.046;8.532;2023-04-24T08:26:07;0.10;;;0.10;;
1180;SDS011;579;52.046;8.532;2023-04-24T08:28:33;0.10;;;0.10;;
1180;SDS011;579;52.046;8.532;2023-04-24T08:30:59;0.10;;;0.10;;
1180;SDS011;579;52.046;8.532;2023-04-24T08:33:25;0.13;;;0.13;;
1180;SDS011;579;52.046;8.532;2023-04-24T08:35:52;0.10;;;0.10;;
1180;SDS011;579;52.046;8.532;2023-04-24T08:38:18;0.10;;;0.10;;
1180;SDS011;579;52.046;8.532;2023-04-24T08:40:44;0.10;;;0.10;;
1180;SDS011;579;52.046;8.532;2023-04-24T08:48:18;0.10;;;0.10;;
1180;SDS011;579;52.046;8.532;2023-04-24T08:50:44;0.10;;;0.10;;
1180;SDS011;579;52.046;8.532;2023-04-24T08:53:10;0.10;;;0.10;;
1180;SDS011;579;52.046;8.532;2023-04-24T08:55:37;0.10;;;0.10;;
1180;SDS011;579;52.046;8.532;2023-04-24T08:58:04;0.10;;;0.10;;
1180;SDS011;579;52.046;8.532;2023-04-24T09:00:30;0.10;;;0.10;;
1180;SDS011;579;52.046;8.532;2023-04-24T09:02:57;0.10;;;0.10;;
1180;SDS011;579;52.046;8.532;2023-04-24T09:10:39;0.10;;;0.10;;
1180;SDS011;579;52.046;8.532;2023-04-24T09:13:06;0.10;;;0.10;;
1180;SDS011;579;52.046;8.532;2023-04-24T09:15:34;0.20;;;0.20;;
1180;SDS011;579;52.046;8.532;2023-04-24T09:18:00;0.10;;;0.10;;
1180;SDS011;579;52.046;8.532;2023-04-24T09:20:27;0.20;;;0.20;;
1180;SDS011;579;52.046;8.532;2023-04-24T09:22:53;0.10;;;0.10;;
1180;SDS011;579;52.046;8.532;2023-04-24T09:25:20;0.10;;;0.10;;
1180;SDS011;579;52.046;8.532;2023-04-24T09:32:54;0.10;;;0.10;;
1180;SDS011;579;52.046;8.532;2023-04-24T09:35:35;0.10;;;0.10;;
1180;SDS011;579;52.046;8.532;2023-04-24T09:38:02;0.10;;;0.10;;
1180;SDS011;579;52.046;8.532;2023-04-24T09:40:28;0.10;;;0.10;;
1180;SDS011;579;52.046;8.532;2023-04-24T09:42:55;0.10;;;0.10;;
1180;SDS011;579;52.046;8.532;2023-04-24T09:45:22;0.10;;;0.10;;
1180;SDS011;579;52.046;8.532;2023-04-24T09:47:54;0.20;;;0.20;;
1180;SDS011;579;52.046;8.532;2023-04-24T09:55:19;0.15;;;0.15;;
1180;SDS011;579;52.046;8.532;2023-04-24T09:57:49;0.10;;;0.10;;
1180;SDS011;579;52.046;8.532;2023-04-24T10:00:23;0.10;;;0.10;;
1180;SDS011;579;52.046;8.532;2023-04-24T10:02:55;0.10;;;0.10;;
1180;SDS011;579;52.046;8.532;2023-04-24T10:05:23;0.10;;;0.10;;
1180;SDS011;579;52.046;8.532;2023-04-24T10:07:55;0.10;;;0.10;;
1180;SDS011;579;52.046;8.532;2023-04-24T10:10:23;0.10;;;0.10;;
1180;SDS011;579;52.046;8.532;2023-04-24T10:17:50;0.20;;;0.20;;
1180;SDS011;579;52.046;8.532;2023-04-24T10:20:18;0.17;;;0.17;;
1180;SDS011;579;52.046;8.532;2023-04-24T10:22:47;0.20;;;0.20;;
1180;SDS011;579;52.046;8.532;2023-04-24T10:25:16;0.13;;;0.13;;
1180;SDS011;579;52.046;8.532;2023-04-24T10:27:44;0.10;;;0.10;;
1180;SDS011;579;52.046;8.532;2023-04-24T10:30:12;0.20;;;0.20;;
1180;SDS011;579;52.046;8.532;2023-04-24T10:32:40;0.20;;;0.20;;
1180;SDS011;579;52.046;8.532;2023-04-24T10:40:17;0.10;;;0.10;;
1180;SDS011;579;52.046;8.532;2023-04-24T10:42:46;0.10;;;0.10;;
1180;SDS011;579;52.046;8.532;2023-04-24T10:45:16;0.10;;;0.10;;
1180;SDS011;579;52.046;8.532;2023-04-24T10:47:50;0.03;;;0.03;;
1180;SDS011;579;52.046;8.532;2023-04-24T10:50:18;0.10;;;0.10;;
1180;SDS011;579;52.046;8.532;2023-04-24T10:52:45;0.10;;;0.10;;
1180;SDS011;579;52.046;8.532;2023-04-24T10:55:12;0.10;;;0.10;;
1180;SDS011;579;52.046;8.532;2023-04-24T11:02:46;0.10;;;0.10;;
1180;SDS011;579;52.046;8.532;2023-04-24T11:05:18;0.10;;;0.10;;
1180;SDS011;579;52.046;8.532;2023-04-24T11:10:39;0.10;;;0.10;;
1180;SDS011;579;52.046;8.532;2023-04-24T11:13:10;0.10;;;0.10;;
1180;SDS011;579;52.046;8.532;2023-04-24T11:15:36;0.00;;;0.00;;
1180;SDS011;579;52.046;8.532;2023-04-24T11:18:03;0.10;;;0.10;;
1180;SDS011;579;52.046;8.532;2023-04-24T11:20:49;0.05;;;0.05;;
1180;SDS011;579;52.046;8.532;2023-04-24T11:23:15;0.10;;;0.10;;
1180;SDS011;579;52.046;8.532;2023-04-24T11:25:43;0.00;;;0.00;;
1180;SDS011;579;52.046;8.532;2023-04-24T11:28:09;0.10;;;0.10;;
1180;SDS011;579;52.046;8.532;2023-04-24T11:30:41;0.10;;;0.10;;
1180;SDS011;579;52.046;8.532;2023-04-24T11:33:07;0.10;;;0.10;;
1180;SDS011;579;52.046;8.532;2023-04-24T11:35:39;0.10;;;0.10;;
1180;SDS011;579;52.046;8.532;2023-04-24T11:43:05;0.10;;;0.10;;
1180;SDS011;579;52.046;8.532;2023-04-24T11:45:32;0.10;;;0.10;;
1180;SDS011;579;52.046;8.532;2023-04-24T11:47:58;0.10;;;0.10;;
1180;SDS011;579;52.046;8.532;2023-04-24T11:50:25;0.10;;;0.10;;
1180;SDS011;579;52.046;8.532;2023-04-24T11:52:53;0.10;;;0.10;;
1180;SDS011;579;52.046;8.532;2023-04-24T11:55:24;0.10;;;0.10;;
1180;SDS011;579;52.046;8.532;2023-04-24T11:57:53;0.10;;;0.10;;
1180;SDS011;579;52.046;8.532;2023-04-24T12:05:27;0.10;;;0.10;;
1180;SDS011;579;52.046;8.532;2023-04-24T12:07:56;0.10;;;0.10;;
1180;SDS011;579;52.046;8.532;2023-04-24T12:10:22;0.00;;;0.00;;
1180;SDS011;579;52.046;8.532;2023-04-24T12:12:50;0.10;;;0.10;;
1180;SDS011;579;52.046;8.532;2023-04-24T12:15:18;0.10;;;0.10;;
1180;SDS011;579;52.046;8.532;2023-04-24T12:17:46;0.10;;;0.10;;
1180;SDS011;579;52.046;8.532;2023-04-24T12:20:13;0.10;;;0.10;;
1180;SDS011;579;52.046;8.532;2023-04-24T12:27:46;0.10;;;0.10;;
1180;SDS011;579;52.046;8.532;2023-04-24T12:30:20;0.10;;;0.10;;
1180;SDS011;579;52.046;8.532;2023-04-24T12:32:47;0.10;;;0.10;;
1180;SDS011;579;52.046;8.532;2023-04-24T12:35:18;0.00;;;0.00;;
1180;SDS011;579;52.046;8.532;2023-04-24T12:37:46;0.10;;;0.10;;
1180;SDS011;579;52.046;8.532;2023-04-24T12:40:13;0.10;;;0.10;;
1180;SDS011;579;52.046;8.532;2023-04-24T12:42:42;0.10;;;0.10;;
1180;SDS011;579;52.046;8.532;2023-04-24T12:50:14;0.10;;;0.10;;
1180;SDS011;579;52.046;8.532;2023-04-24T12:52:41;0.20;;;0.20;;
1180;SDS011;579;52.046;8.532;2023-04-24T12:55:08;0.10;;;0.10;;
1180;SDS011;579;52.046;8.532;2023-04-24T12:57:37;0.10;;;0.10;;
1180;SDS011;579;52.046;8.532;2023-04-24T13:00:05;0.10;;;0.10;;
1180;SDS011;579;52.046;8.532;2023-04-24T13:02:34;0.20;;;0.20;;
1180;SDS011;579;52.046;8.532;2023-04-24T13:05:01;0.10;;;0.10;;
1180;SDS011;579;52.046;8.532;2023-04-24T13:12:37;0.20;;;0.20;;
1180;SDS011;579;52.046;8.532;2023-04-24T13:15:04;0.20;;;0.20;;
1180;SDS011;579;52.046;8.532;2023-04-24T13:17:32;0.30;;;0.30;;
1180;SDS011;579;52.046;8.532;2023-04-24T13:19:58;0.20;;;0.20;;
1180;SDS011;579;52.046;8.532;2023-04-24T13:22:25;0.20;;;0.20;;
1180;SDS011;579;52.046;8.532;2023-04-24T13:24:52;0.20;;;0.20;;
1180;SDS011;579;52.046;8.532;2023-04-24T13:27:21;0.10;;;0.10;;
1180;SDS011;579;52.046;8.532;2023-04-24T13:29:50;0.20;;;0.20;;
1180;SDS011;579;52.046;8.532;2023-04-24T13:34:55;0.20;;;0.20;;
1180;SDS011;579;52.046;8.532;2023-04-24T13:37:22;0.20;;;0.20;;
1180;SDS011;579;52.046;8.532;2023-04-24T13:39:49;0.10;;;0.10;;
1180;SDS011;579;52.046;8.532;2023-04-24T13:42:15;0.10;;;0.10;;
1180;SDS011;579;52.046;8.532;2023-04-24T13:44:42;0.10;;;0.10;;
1180;SDS011;579;52.046;8.532;2023-04-24T13:47:08;0.20;;;0.20;;
1180;SDS011;579;52.046;8.532;2023-04-24T13:49:34;0.20;;;0.20;;
1180;SDS011;579;52.046;8.532;2023-04-24T13:58:27;0.30;;;0.30;;
1180;SDS011;579;52.046;8.532;2023-04-24T14:00:53;0.20;;;0.20;;
1180;SDS011;579;52.046;8.532;2023-04-24T14:03:20;0.20;;;0.20;;
1180;SDS011;579;52.046;8.532;2023-04-24T14:05:46;0.20;;;0.20;;
1180;SDS011;579;52.046;8.532;2023-04-24T14:08:13;0.20;;;0.20;;
1180;SDS011;579;52.046;8.532;2023-04-24T14:10:39;0.13;;;0.13;;
1180;SDS011;579;52.046;8.532;2023-04-24T14:13:05;0.10;;;0.10;;
1180;SDS011;579;52.046;8.532;2023-04-24T14:20:23;0.20;;;0.20;;
1180;SDS011;579;52.046;8.532;2023-04-24T14:22:50;0.28;;;0.28;;
1180;SDS011;579;52.046;8.532;2023-04-24T14:25:16;0.30;;;0.30;;
1180;SDS011;579;52.046;8.532;2023-04-24T14:27:42;0.20;;;0.20;;
1180;SDS011;579;52.046;8.532;2023-04-24T14:30:09;0.30;;;0.30;;
1180;SDS011;579;52.046;8.532;2023-04-24T14:32:36;0.20;;;0.20;;
1180;SDS011;579;52.046;8.532;2023-04-24T14:35:03;0.20;;;0.20;;
1180;SDS011;579;52.046;8.532;2023-04-24T14:42:37;0.20;;;0.20;;
1180;SDS011;579;52.046;8.532;2023-04-24T14:45:04;0.20;;;0.20;;
1180;SDS011;579;52.046;8.532;2023-04-24T14:47:31;0.20;;;0.20;;
1180;SDS011;579;52.046;8.532;2023-04-24T14:49:58;0.20;;;0.20;;
1180;SDS011;579;52.046;8.532;2023-04-24T14:52:24;0.20;;;0.20;;
1180;SDS011;579;52.046;8.532;2023-04-24T14:54:50;0.10;;;0.10;;
1180;SDS011;579;52.046;8.532;2023-04-24T14:57:16;0.20;;;0.20;;
1180;SDS011;579;52.046;8.532;2023-04-24T15:04:43;0.20;;;0.20;;
1180;SDS011;579;52.046;8.532;2023-04-24T15:07:10;0.20;;;0.20;;
1180;SDS011;579;52.046;8.532;2023-04-24T15:09:36;0.20;;;0.20;;
1180;SDS011;579;52.046;8.532;2023-04-24T15:12:03;0.30;;;0.30;;
1180;SDS011;579;52.046;8.532;2023-04-24T15:14:29;0.20;;;0.20;;
1180;SDS011;579;52.046;8.532;2023-04-24T15:16:55;0.20;;;0.20;;
1180;SDS011;579;52.046;8.532;2023-04-24T15:19:21;0.20;;;0.20;;
1180;SDS011;579;52.046;8.532;2023-04-24T15:24:28;0.30;;;0.30;;
1180;SDS011;579;52.046;8.532;2023-04-24T15:26:54;0.20;;;0.20;;
1180;SDS011;579;52.046;8.532;2023-04-24T15:29:21;0.20;;;0.20;;
1180;SDS011;579;52.046;8.532;2023-04-24T15:31:47;0.20;;;0.20;;
1180;SDS011;579;52.046;8.532;2023-04-24T15:34:18;0.20;;;0.20;;
1180;SDS011;579;52.046;8.532;2023-04-24T15:36:45;0.10;;;0.10;;
1180;SDS011;579;52.046;8.532;2023-04-24T15:39:11;0.20;;;0.20;;
1180;SDS011;579;52.046;8.532;2023-04-24T15:45:56;0.13;;;0.13;;
1180;SDS011;579;52.046;8.532;2023-04-24T15:48:22;0.10;;;0.10;;
1180;SDS011;579;52.046;8.532;2023-04-24T15:50:49;0.10;;;0.10;;
1180;SDS011;579;52.046;8.532;2023-04-24T15:53:15;0.10;;;0.10;;
1180;SDS011;579;52.046;8.532;2023-04-24T15:55:46;0.10;;;0.10;;
1180;SDS011;579;52.046;8.532;2023-04-24T15:58:12;0.20;;;0.20;;
1180;SDS011;579;52.046;8.532;2023-04-24T16:00:38;0.10;;;0.10;;
1180;SDS011;579;52.046;8.532;2023-04-24T16:08:10;0.10;;;0.10;;
1180;SDS011;579;52.046;8.532;2023-04-24T16:10:41;0.10;;;0.10;;
1180;SDS011;579;52.046;8.532;2023-04-24T16:13:08;0.10;;;0.10;;
1180;SDS011;579;52.046;8.532;2023-04-24T16:15:34;0.15;;;0.15;;
1180;SDS011;579;52.046;8.532;2023-04-24T16:18:01;0.20;;;0.20;;
1180;SDS011;579;52.046;8.532;2023-04-24T16:20:28;0.20;;;0.20;;
1180;SDS011;579;52.046;8.532;2023-04-24T16:22:54;0.20;;;0.20;;
1180;SDS011;579;52.046;8.532;2023-04-24T16:28:51;0.20;;;0.20;;
1180;SDS011;579;52.046;8.532;2023-04-24T16:31:17;0.10;;;0.10;;
1180;SDS011;579;52.046;8.532;2023-04-24T16:33:43;0.10;;;0.10;;
1180;SDS011;579;52.046;8.532;2023-04-24T16:36:10;0.10;;;0.10;;
1180;SDS011;579;52.046;8.532;2023-04-24T16:38:37;0.10;;;0.10;;
1180;SDS011;579;52.046;8.532;2023-04-24T16:41:03;0.10;;;0.10;;
1180;SDS011;579;52.046;8.532;2023-04-24T16:43:30;0.10;;;0.10;;
1180;SDS011;579;52.046;8.532;2023-04-24T16:50:50;0.10;;;0.10;;
1180;SDS011;579;52.046;8.532;2023-04-24T16:53:16;0.10;;;0.10;;
1180;SDS011;579;52.046;8.532;2023-04-24T16:55:42;0.10;;;0.10;;
1180;SDS011;579;52.046;8.532;2023-04-24T16:58:08;0.10;;;0.10;;
1180;SDS011;579;52.046;8.532;2023-04-24T17:00:35;0.10;;;0.10;;
1180;SDS011;579;52.046;8.532;2023-04-24T17:03:02;0.10;;;0.10;;
1180;SDS011;579;52.046;8.532;2023-04-24T17:05:28;0.10;;;0.10;;
1180;SDS011;579;52.046;8.532;2023-04-24T17:11:49;0.10;;;0.10;;
1180;SDS011;579;52.046;8.532;2023-04-24T17:14:16;0.10;;;0.10;;
1180;SDS011;579;52.046;8.532;2023-04-24T17:16:42;0.10;;;0.10;;
1180;SDS011;579;52.046;8.532;2023-04-24T17:19:10;0.00;;;0.00;;
1180;SDS011;579;52.046;8.532;2023-04-24T17:21:36;0.10;;;0.10;;
1180;SDS011;579;52.046;8.532;2023-04-24T17:24:03;0.10;;;0.10;;
1180;SDS011;579;52.046;8.532;2023-04-24T17:26:30;0.10;;;0.10;;
1180;SDS011;579;52.046;8.532;2023-04-24T17:31:48;0.10;;;0.10;;
1180;SDS011;579;52.046;8.532;2023-04-24T17:34:14;0.10;;;0.10;;
1180;SDS011;579;52.046;8.532;2023-04-24T17:36:41;0.10;;;0.10;;
1180;SDS011;579;52.046;8.532;2023-04-24T17:39:07;0.10;;;0.10;;
1180;SDS011;579;52.046;8.532;2023-04-24T17:41:34;0.20;;;0.20;;
1180;SDS011;579;52.046;8.532;2023-04-24T17:44:00;0.20;;;0.20;;
1180;SDS011;579;52.046;8.532;2023-04-24T17:46:27;0.10;;;0.10;;
1180;SDS011;579;52.046;8.532;2023-04-24T17:54:12;0.10;;;0.10;;
1180;SDS011;579;52.046;8.532;2023-04-24T17:56:39;0.20;;;0.20;;
1180;SDS011;579;52.046;8.532;2023-04-24T17:59:05;0.10;;;0.10;;
1180;SDS011;579;52.046;8.532;2023-04-24T18:01:32;0.00;;;0.00;;
1180;SDS011;579;52.046;8.532;2023-04-24T18:04:01;0.00;;;0.00;;
1180;SDS011;579;52.046;8.532;2023-04-24T18:06:27;0.00;;;0.00;;
1180;SDS011;579;52.046;8.532;2023-04-24T18:08:54;0.08;;;0.08;;
1180;SDS011;579;52.046;8.532;2023-04-24T18:14:52;0.08;;;0.08;;
1180;SDS011;579;52.046;8.532;2023-04-24T18:17:19;0.10;;;0.10;;
1180;SDS011;579;52.046;8.532;2023-04-24T18:19:48;0.20;;;0.20;;
1180;SDS011;579;52.046;8.532;2023-04-24T18:22:15;0.13;;;0.13;;
1180;SDS011;579;52.046;8.532;2023-04-24T18:24:41;0.10;;;0.10;;
1180;SDS011;579;52.046;8.532;2023-04-24T18:27:08;0.10;;;0.10;;
1180;SDS011;579;52.046;8.532;2023-04-24T18:29:34;0.00;;;0.00;;
1180;SDS011;579;52.046;8.532;2023-04-24T18:34:36;0.00;;;0.00;;
1180;SDS011;579;52.046;8.532;2023-04-24T18:37:02;0.03;;;0.03;;
1180;SDS011;579;52.046;8.532;2023-04-24T18:39:29;0.00;;;0.00;;
1180;SDS011;579;52.046;8.532;2023-04-24T18:41:55;0.00;;;0.00;;
1180;SDS011;579;52.046;8.532;2023-04-24T18:44:22;0.00;;;0.00;;
1180;SDS011;579;52.046;8.532;2023-04-24T18:46:50;0.00;;;0.00;;
1180;SDS011;579;52.046;8.532;2023-04-24T18:49:17;0.00;;;0.00;;
1180;SDS011;579;52.046;8.532;2023-04-24T18:56:48;0.00;;;0.00;;
1180;SDS011;579;52.046;8.532;2023-04-24T18:59:15;0.00;;;0.00;;
1180;SDS011;579;52.046;8.532;2023-04-24T19:01:45;0.00;;;0.00;;
1180;SDS011;579;52.046;8.532;2023-04-24T19:04:11;0.00;;;0.00;;
1180;SDS011;579;52.046;8.532;2023-04-24T19:06:38;0.10;;;0.10;;
1180;SDS011;579;52.046;8.532;2023-04-24T19:09:04;0.00;;;0.00;;
1180;SDS011;579;52.046;8.532;2023-04-24T19:11:31;0.00;;;0.00;;
1180;SDS011;579;52.046;8.532;2023-04-24T19:19:03;0.00;;;0.00;;
1180;SDS011;579;52.046;8.532;2023-04-24T19:21:29;0.00;;;0.00;;
1180;SDS011;579;52.046;8.532;2023-04-24T19:23:57;0.00;;;0.00;;
1180;SDS011;579;52.046;8.532;2023-04-24T19:26:23;0.00;;;0.00;;
1180;SDS011;579;52.046;8.532;2023-04-24T19:28:52;0.00;;;0.00;;
1180;SDS011;579;52.046;8.532;2023-04-24T19:31:21;0.00;;;0.00;;
1180;SDS011;579;52.046;8.532;2023-04-24T19:33:48;0.00;;;0.00;;
1180;SDS011;579;52.046;8.532;2023-04-24T19:38:53;0.00;;;0.00;;